sensor_id;sensor_type;location;lat;lon;timestamp;P1;durP1;ratioP1;P2;durP2;ratioP2
51288;SDS011;37372;52.294;5.152;2022-08-21T00:01:05;8.40;;;3.35;;
51288;SDS011;37372;52.294;5.152;2022-08-21T00:03:34;7.90;;;3.70;;
51288;SDS011;37372;52.294;5.152;2022-08-21T00:06:00;7.28;;;3.25;;
51288;SDS011;37372;52.294;5.152;2022-08-21T00:08:26;9.27;;;4.53;;
51288;SDS011;37372;52.294;5.152;2022-08-21T00:10:52;5.75;;;3.40;;
51288;SDS011;37372;52.294;5.152;2022-08-21T00:13:17;6.45;;;3.70;;
51288;SDS011;37372;52.294;5.152;2022-08-21T00:15:45;7.68;;;3.25;;
51288;SDS011;37372;52.294;5.152;2022-08-21T00:18:12;12.50;;;3.08;;
51288;SDS011;37372;52.294;5.152;2022-08-21T00:20:38;9.38;;;3.53;;
51288;SDS011;37372;52.294;5.152;2022-08-21T00:23:04;8.35;;;3.50;;
51288;SDS011;37372;52.294;5.152;2022-08-21T00:25:30;9.38;;;4.13;;
51288;SDS011;37372;52.294;5.152;2022-08-21T00:27:56;10.82;;;4.28;;
51288;SDS011;37372;52.294;5.152;2022-08-21T00:30:22;6.95;;;2.95;;
51288;SDS011;37372;52.294;5.152;2022-08-21T00:32:49;17.08;;;3.83;;
51288;SDS011;37372;52.294;5.152;2022-08-21T00:35:17;9.43;;;4.47;;
51288;SDS011;37372;52.294;5.152;2022-08-21T00:37:44;9.95;;;4.18;;
51288;SDS011;37372;52.294;5.152;2022-08-21T00:40:11;8.50;;;3.70;;
51288;SDS011;37372;52.294;5.152;2022-08-21T00:42:39;5.53;;;3.13;;
51288;SDS011;37372;52.294;5.152;2022-08-21T00:45:05;11.98;;;4.00;;
51288;SDS011;37372;52.294;5.152;2022-08-21T00:47:31;6.90;;;3.17;;
51288;SDS011;37372;52.294;5.152;2022-08-21T00:49:57;8.48;;;3.42;;
51288;SDS011;37372;52.294;5.152;2022-08-21T00:52:25;8.13;;;3.60;;
51288;SDS011;37372;52.294;5.152;2022-08-21T00:54:53;9.73;;;3.55;;
51288;SDS011;37372;52.294;5.152;2022-08-21T00:57:21;6.43;;;3.53;;
51288;SDS011;37372;52.294;5.152;2022-08-21T00:59:58;8.70;;;3.10;;
51288;SDS011;37372;52.294;5.152;2022-08-21T01:02:26;14.23;;;3.55;;
51288;SDS011;37372;52.294;5.152;2022-08-21T01:04:52;10.88;;;3.20;;
51288;SDS011;37372;52.294;5.152;2022-08-21T01:07:18;6.35;;;3.17;;
51288;SDS011;37372;52.294;5.152;2022-08-21T01:09:45;9.52;;;3.13;;
51288;SDS011;37372;52.294;5.152;2022-08-21T01:12:11;9.88;;;3.25;;
51288;SDS011;37372;52.294;5.152;2022-08-21T01:14:37;9.02;;;3.35;;
51288;SDS011;37372;52.294;5.152;2022-08-21T01:17:05;7.20;;;3.40;;
51288;SDS011;37372;52.294;5.152;2022-08-21T01:19:31;9.93;;;3.50;;
51288;SDS011;37372;52.294;5.152;2022-08-21T01:21:56;8.15;;;3.30;;
51288;SDS011;37372;52.294;5.152;2022-08-21T01:24:22;6.72;;;2.80;;
51288;SDS011;37372;52.294;5.152;2022-08-21T01:26:47;6.55;;;2.78;;
51288;SDS011;37372;52.294;5.152;2022-08-21T01:32:13;9.68;;;4.10;;
51288;SDS011;37372;52.294;5.152;2022-08-21T01:34:41;7.15;;;3.30;;
51288;SDS011;37372;52.294;5.152;2022-08-21T01:37:10;8.18;;;3.42;;
51288;SDS011;37372;52.294;5.152;2022-08-21T01:39:36;6.45;;;2.92;;
51288;SDS011;37372;52.294;5.152;2022-08-21T01:42:02;6.78;;;3.03;;
51288;SDS011;37372;52.294;5.152;2022-08-21T01:44:28;10.20;;;2.92;;
51288;SDS011;37372;52.294;5.152;2022-08-21T01:46:54;7.10;;;2.92;;
51288;SDS011;37372;52.294;5.152;2022-08-21T01:49:21;7.32;;;3.28;;
51288;SDS011;37372;52.294;5.152;2022-08-21T01:51:46;9.15;;;3.50;;
51288;SDS011;37372;52.294;5.152;2022-08-21T01:54:12;9.60;;;3.45;;
51288;SDS011;37372;52.294;5.152;2022-08-21T01:56:38;9.43;;;3.70;;
51288;SDS011;37372;52.294;5.152;2022-08-21T01:59:06;7.03;;;2.88;;
51288;SDS011;37372;52.294;5.152;2022-08-21T02:01:31;7.43;;;2.75;;
51288;SDS011;37372;52.294;5.152;2022-08-21T02:03:57;8.98;;;3.50;;
51288;SDS011;37372;52.294;5.152;2022-08-21T02:06:24;9.32;;;2.92;;
51288;SDS011;37372;52.294;5.152;2022-08-21T02:08:50;9.75;;;3.20;;
51288;SDS011;37372;52.294;5.152;2022-08-21T02:11:16;14.05;;;3.60;;
51288;SDS011;37372;52.294;5.152;2022-08-21T02:13:42;8.25;;;2.80;;
51288;SDS011;37372;52.294;5.152;2022-08-21T02:16:07;10.13;;;3.42;;
51288;SDS011;37372;52.294;5.152;2022-08-21T02:18:33;9.38;;;3.53;;
51288;SDS011;37372;52.294;5.152;2022-08-21T02:20:59;8.65;;;3.47;;
51288;SDS011;37372;52.294;5.152;2022-08-21T02:23:25;6.82;;;3.30;;
51288;SDS011;37372;52.294;5.152;2022-08-21T02:25:51;5.53;;;3.40;;
51288;SDS011;37372;52.294;5.152;2022-08-21T02:28:16;7.28;;;3.72;;
51288;SDS011;37372;52.294;5.152;2022-08-21T02:30:43;9.15;;;3.63;;
51288;SDS011;37372;52.294;5.152;2022-08-21T02:33:10;8.02;;;4.07;;
51288;SDS011;37372;52.294;5.152;2022-08-21T02:35:37;8.18;;;3.13;;
51288;SDS011;37372;52.294;5.152;2022-08-21T02:38:04;10.32;;;3.85;;
51288;SDS011;37372;52.294;5.152;2022-08-21T02:40:33;8.75;;;3.67;;
51288;SDS011;37372;52.294;5.152;2022-08-21T02:43:01;8.85;;;3.35;;
51288;SDS011;37372;52.294;5.152;2022-08-21T02:45:28;6.93;;;3.70;;
51288;SDS011;37372;52.294;5.152;2022-08-21T02:47:55;10.57;;;3.70;;
51288;SDS011;37372;52.294;5.152;2022-08-21T02:50:28;6.75;;;3.13;;
51288;SDS011;37372;52.294;5.152;2022-08-21T02:52:56;6.40;;;3.42;;
51288;SDS011;37372;52.294;5.152;2022-08-21T02:55:22;9.38;;;3.38;;
51288;SDS011;37372;52.294;5.152;2022-08-21T02:57:51;9.05;;;3.08;;
51288;SDS011;37372;52.294;5.152;2022-08-21T03:00:17;10.45;;;4.30;;
51288;SDS011;37372;52.294;5.152;2022-08-21T03:02:44;7.97;;;3.33;;
51288;SDS011;37372;52.294;5.152;2022-08-21T03:05:11;8.18;;;3.45;;
51288;SDS011;37372;52.294;5.152;2022-08-21T03:07:38;6.40;;;3.22;;
51288;SDS011;37372;52.294;5.152;2022-08-21T03:10:04;8.15;;;3.53;;
51288;SDS011;37372;52.294;5.152;2022-08-21T03:12:30;8.13;;;3.67;;
51288;SDS011;37372;52.294;5.152;2022-08-21T03:14:55;8.55;;;3.10;;
51288;SDS011;37372;52.294;5.152;2022-08-21T03:17:22;11.52;;;4.10;;
51288;SDS011;37372;52.294;5.152;2022-08-21T03:19:47;8.18;;;3.63;;
51288;SDS011;37372;52.294;5.152;2022-08-21T03:22:13;10.85;;;3.58;;
51288;SDS011;37372;52.294;5.152;2022-08-21T03:24:38;9.00;;;3.58;;
51288;SDS011;37372;52.294;5.152;2022-08-21T03:27:03;9.30;;;3.38;;
51288;SDS011;37372;52.294;5.152;2022-08-21T03:29:29;11.52;;;4.18;;
51288;SDS011;37372;52.294;5.152;2022-08-21T03:31:54;6.40;;;3.35;;
51288;SDS011;37372;52.294;5.152;2022-08-21T03:34:20;8.13;;;3.05;;
51288;SDS011;37372;52.294;5.152;2022-08-21T03:36:46;13.82;;;4.53;;
51288;SDS011;37372;52.294;5.152;2022-08-21T03:39:12;7.68;;;3.58;;
51288;SDS011;37372;52.294;5.152;2022-08-21T03:41:37;8.40;;;3.63;;
51288;SDS011;37372;52.294;5.152;2022-08-21T03:44:03;9.32;;;3.80;;
51288;SDS011;37372;52.294;5.152;2022-08-21T03:46:28;6.57;;;3.40;;
51288;SDS011;37372;52.294;5.152;2022-08-21T03:48:53;7.43;;;3.58;;
51288;SDS011;37372;52.294;5.152;2022-08-21T03:51:19;9.75;;;3.97;;
51288;SDS011;37372;52.294;5.152;2022-08-21T03:53:45;9.25;;;3.47;;
51288;SDS011;37372;52.294;5.152;2022-08-21T03:56:10;11.00;;;4.80;;
51288;SDS011;37372;52.294;5.152;2022-08-21T03:58:36;9.43;;;3.78;;
51288;SDS011;37372;52.294;5.152;2022-08-21T04:01:03;9.95;;;3.53;;
51288;SDS011;37372;52.294;5.152;2022-08-21T04:03:31;11.00;;;3.83;;
51288;SDS011;37372;52.294;5.152;2022-08-21T04:05:56;10.88;;;4.53;;
51288;SDS011;37372;52.294;5.152;2022-08-21T04:08:22;10.43;;;3.80;;
51288;SDS011;37372;52.294;5.152;2022-08-21T04:10:48;7.22;;;3.28;;
51288;SDS011;37372;52.294;5.152;2022-08-21T04:13:16;9.27;;;3.10;;
51288;SDS011;37372;52.294;5.152;2022-08-21T04:15:41;7.93;;;3.60;;
51288;SDS011;37372;52.294;5.152;2022-08-21T04:18:07;7.55;;;3.35;;
51288;SDS011;37372;52.294;5.152;2022-08-21T04:20:33;6.65;;;3.25;;
51288;SDS011;37372;52.294;5.152;2022-08-21T04:22:59;8.23;;;4.47;;
51288;SDS011;37372;52.294;5.152;2022-08-21T04:25:25;8.55;;;3.38;;
51288;SDS011;37372;52.294;5.152;2022-08-21T04:27:50;10.73;;;3.80;;
51288;SDS011;37372;52.294;5.152;2022-08-21T04:30:16;9.93;;;3.45;;
51288;SDS011;37372;52.294;5.152;2022-08-21T04:32:45;10.07;;;3.60;;
51288;SDS011;37372;52.294;5.152;2022-08-21T04:35:13;8.80;;;3.30;;
51288;SDS011;37372;52.294;5.152;2022-08-21T04:37:39;7.45;;;3.00;;
51288;SDS011;37372;52.294;5.152;2022-08-21T04:40:05;9.07;;;3.30;;
51288;SDS011;37372;52.294;5.152;2022-08-21T04:42:31;7.85;;;3.80;;
51288;SDS011;37372;52.294;5.152;2022-08-21T04:44:57;8.73;;;3.75;;
51288;SDS011;37372;52.294;5.152;2022-08-21T04:47:23;10.25;;;3.28;;
51288;SDS011;37372;52.294;5.152;2022-08-21T04:49:49;8.93;;;4.22;;
51288;SDS011;37372;52.294;5.152;2022-08-21T04:52:20;10.25;;;3.08;;
51288;SDS011;37372;52.294;5.152;2022-08-21T04:54:47;11.23;;;3.40;;
51288;SDS011;37372;52.294;5.152;2022-08-21T04:57:16;8.75;;;3.30;;
51288;SDS011;37372;52.294;5.152;2022-08-21T04:59:43;6.45;;;3.35;;
51288;SDS011;37372;52.294;5.152;2022-08-21T05:02:12;9.30;;;4.10;;
51288;SDS011;37372;52.294;5.152;2022-08-21T05:04:40;8.70;;;3.63;;
51288;SDS011;37372;52.294;5.152;2022-08-21T05:07:10;10.30;;;4.15;;
51288;SDS011;37372;52.294;5.152;2022-08-21T05:09:42;12.48;;;3.53;;
51288;SDS011;37372;52.294;5.152;2022-08-21T05:12:08;8.80;;;3.72;;
51288;SDS011;37372;52.294;5.152;2022-08-21T05:14:34;9.02;;;3.60;;
51288;SDS011;37372;52.294;5.152;2022-08-21T05:17:00;8.82;;;4.20;;
51288;SDS011;37372;52.294;5.152;2022-08-21T05:19:25;7.57;;;3.63;;
51288;SDS011;37372;52.294;5.152;2022-08-21T05:21:52;10.65;;;3.85;;
51288;SDS011;37372;52.294;5.152;2022-08-21T05:24:17;7.72;;;3.60;;
51288;SDS011;37372;52.294;5.152;2022-08-21T05:26:43;11.60;;;4.05;;
51288;SDS011;37372;52.294;5.152;2022-08-21T05:29:08;10.95;;;4.72;;
51288;SDS011;37372;52.294;5.152;2022-08-21T05:31:34;12.85;;;4.63;;
51288;SDS011;37372;52.294;5.152;2022-08-21T05:33:59;10.73;;;3.95;;
51288;SDS011;37372;52.294;5.152;2022-08-21T05:36:24;12.30;;;4.65;;
51288;SDS011;37372;52.294;5.152;2022-08-21T05:38:50;7.57;;;4.03;;
51288;SDS011;37372;52.294;5.152;2022-08-21T05:41:15;8.52;;;4.22;;
51288;SDS011;37372;52.294;5.152;2022-08-21T05:43:40;11.80;;;6.32;;
51288;SDS011;37372;52.294;5.152;2022-08-21T05:46:06;8.88;;;3.83;;
51288;SDS011;37372;52.294;5.152;2022-08-21T05:48:33;10.48;;;5.05;;
51288;SDS011;37372;52.294;5.152;2022-08-21T05:51:03;11.02;;;4.70;;
51288;SDS011;37372;52.294;5.152;2022-08-21T05:53:30;8.07;;;3.35;;
51288;SDS011;37372;52.294;5.152;2022-08-21T05:55:56;8.07;;;3.55;;
51288;SDS011;37372;52.294;5.152;2022-08-21T05:58:21;14.55;;;3.65;;
51288;SDS011;37372;52.294;5.152;2022-08-21T06:00:50;8.23;;;4.50;;
51288;SDS011;37372;52.294;5.152;2022-08-21T06:03:20;8.32;;;4.22;;
51288;SDS011;37372;52.294;5.152;2022-08-21T06:05:50;8.95;;;3.67;;
51288;SDS011;37372;52.294;5.152;2022-08-21T06:08:16;10.55;;;3.85;;
51288;SDS011;37372;52.294;5.152;2022-08-21T06:10:43;9.85;;;3.83;;
51288;SDS011;37372;52.294;5.152;2022-08-21T06:13:09;13.43;;;4.70;;
51288;SDS011;37372;52.294;5.152;2022-08-21T06:15:35;9.98;;;3.75;;
51288;SDS011;37372;52.294;5.152;2022-08-21T06:18:01;9.85;;;3.85;;
51288;SDS011;37372;52.294;5.152;2022-08-21T06:20:26;12.25;;;3.95;;
51288;SDS011;37372;52.294;5.152;2022-08-21T06:22:52;7.88;;;3.15;;
51288;SDS011;37372;52.294;5.152;2022-08-21T06:25:18;11.50;;;4.88;;
51288;SDS011;37372;52.294;5.152;2022-08-21T06:27:44;12.02;;;4.15;;
51288;SDS011;37372;52.294;5.152;2022-08-21T06:30:09;9.50;;;3.65;;
51288;SDS011;37372;52.294;5.152;2022-08-21T06:32:35;10.90;;;5.05;;
51288;SDS011;37372;52.294;5.152;2022-08-21T06:35:01;12.32;;;4.80;;
51288;SDS011;37372;52.294;5.152;2022-08-21T06:37:26;13.02;;;4.07;;
51288;SDS011;37372;52.294;5.152;2022-08-21T06:39:52;14.55;;;3.92;;
51288;SDS011;37372;52.294;5.152;2022-08-21T06:42:17;10.98;;;4.57;;
51288;SDS011;37372;52.294;5.152;2022-08-21T06:44:43;9.57;;;4.18;;
51288;SDS011;37372;52.294;5.152;2022-08-21T06:47:09;13.18;;;4.22;;
51288;SDS011;37372;52.294;5.152;2022-08-21T06:49:35;14.07;;;4.65;;
51288;SDS011;37372;52.294;5.152;2022-08-21T06:52:00;9.02;;;3.85;;
51288;SDS011;37372;52.294;5.152;2022-08-21T06:54:26;8.40;;;2.88;;
51288;SDS011;37372;52.294;5.152;2022-08-21T06:56:51;16.85;;;5.47;;
51288;SDS011;37372;52.294;5.152;2022-08-21T06:59:17;9.57;;;4.07;;
51288;SDS011;37372;52.294;5.152;2022-08-21T07:01:42;13.45;;;4.22;;
51288;SDS011;37372;52.294;5.152;2022-08-21T07:04:08;12.13;;;4.38;;
51288;SDS011;37372;52.294;5.152;2022-08-21T07:06:33;15.02;;;4.15;;
51288;SDS011;37372;52.294;5.152;2022-08-21T07:08:59;10.52;;;3.80;;
51288;SDS011;37372;52.294;5.152;2022-08-21T07:11:26;10.98;;;3.92;;
51288;SDS011;37372;52.294;5.152;2022-08-21T07:13:52;9.77;;;3.85;;
51288;SDS011;37372;52.294;5.152;2022-08-21T07:16:19;10.73;;;4.13;;
51288;SDS011;37372;52.294;5.152;2022-08-21T07:18:46;12.48;;;4.60;;
51288;SDS011;37372;52.294;5.152;2022-08-21T07:21:11;11.63;;;4.35;;
51288;SDS011;37372;52.294;5.152;2022-08-21T07:23:38;14.65;;;3.78;;
51288;SDS011;37372;52.294;5.152;2022-08-21T07:26:05;13.95;;;4.93;;
51288;SDS011;37372;52.294;5.152;2022-08-21T07:28:31;11.30;;;4.70;;
51288;SDS011;37372;52.294;5.152;2022-08-21T07:30:57;10.27;;;4.22;;
51288;SDS011;37372;52.294;5.152;2022-08-21T07:33:24;12.23;;;5.07;;
51288;SDS011;37372;52.294;5.152;2022-08-21T07:35:51;9.65;;;5.00;;
51288;SDS011;37372;52.294;5.152;2022-08-21T07:38:17;11.45;;;4.75;;
51288;SDS011;37372;52.294;5.152;2022-08-21T07:40:43;10.30;;;5.03;;
51288;SDS011;37372;52.294;5.152;2022-08-21T07:43:09;10.35;;;4.47;;
51288;SDS011;37372;52.294;5.152;2022-08-21T07:45:36;12.50;;;4.43;;
51288;SDS011;37372;52.294;5.152;2022-08-21T07:48:02;8.57;;;4.28;;
51288;SDS011;37372;52.294;5.152;2022-08-21T07:50:27;12.25;;;4.68;;
51288;SDS011;37372;52.294;5.152;2022-08-21T07:52:53;10.13;;;4.30;;
51288;SDS011;37372;52.294;5.152;2022-08-21T07:55:19;14.23;;;4.25;;
51288;SDS011;37372;52.294;5.152;2022-08-21T07:57:45;12.05;;;4.75;;
51288;SDS011;37372;52.294;5.152;2022-08-21T08:00:13;9.70;;;3.78;;
51288;SDS011;37372;52.294;5.152;2022-08-21T08:02:43;9.07;;;2.97;;
51288;SDS011;37372;52.294;5.152;2022-08-21T08:05:10;13.52;;;4.60;;
51288;SDS011;37372;52.294;5.152;2022-08-21T08:07:36;12.75;;;4.70;;
51288;SDS011;37372;52.294;5.152;2022-08-21T08:10:03;12.07;;;4.10;;
51288;SDS011;37372;52.294;5.152;2022-08-21T08:12:30;13.15;;;4.28;;
51288;SDS011;37372;52.294;5.152;2022-08-21T08:14:56;12.23;;;4.10;;
51288;SDS011;37372;52.294;5.152;2022-08-21T08:17:22;13.45;;;5.10;;
51288;SDS011;37372;52.294;5.152;2022-08-21T08:19:48;8.27;;;3.75;;
51288;SDS011;37372;52.294;5.152;2022-08-21T08:22:15;7.93;;;3.83;;
51288;SDS011;37372;52.294;5.152;2022-08-21T08:24:44;10.50;;;4.53;;
51288;SDS011;37372;52.294;5.152;2022-08-21T08:27:09;17.42;;;5.63;;
51288;SDS011;37372;52.294;5.152;2022-08-21T08:29:34;13.27;;;4.80;;
51288;SDS011;37372;52.294;5.152;2022-08-21T08:32:00;10.55;;;3.97;;
51288;SDS011;37372;52.294;5.152;2022-08-21T08:34:25;10.52;;;4.40;;
51288;SDS011;37372;52.294;5.152;2022-08-21T08:36:51;14.43;;;4.70;;
51288;SDS011;37372;52.294;5.152;2022-08-21T08:39:18;13.88;;;4.65;;
51288;SDS011;37372;52.294;5.152;2022-08-21T08:41:43;11.32;;;3.97;;
51288;SDS011;37372;52.294;5.152;2022-08-21T08:44:12;12.82;;;4.00;;
51288;SDS011;37372;52.294;5.152;2022-08-21T08:46:39;11.75;;;3.65;;
51288;SDS011;37372;52.294;5.152;2022-08-21T08:49:22;9.45;;;3.67;;
51288;SDS011;37372;52.294;5.152;2022-08-21T08:54:26;17.33;;;5.13;;
51288;SDS011;37372;52.294;5.152;2022-08-21T08:56:57;12.90;;;3.80;;
51288;SDS011;37372;52.294;5.152;2022-08-21T09:02:22;18.65;;;9.30;;
51288;SDS011;37372;52.294;5.152;2022-08-21T09:04:48;22.50;;;11.70;;
51288;SDS011;37372;52.294;5.152;2022-08-21T09:10:22;28.40;;;17.98;;
51288;SDS011;37372;52.294;5.152;2022-08-21T09:13:02;26.27;;;14.57;;
51288;SDS011;37372;52.294;5.152;2022-08-21T09:19:04;19.67;;;10.75;;
51288;SDS011;37372;52.294;5.152;2022-08-21T09:27:20;12.63;;;4.90;;
51288;SDS011;37372;52.294;5.152;2022-08-21T09:29:48;13.85;;;5.45;;
51288;SDS011;37372;52.294;5.152;2022-08-21T09:32:23;9.73;;;4.95;;
51288;SDS011;37372;52.294;5.152;2022-08-21T09:34:57;9.90;;;4.78;;
51288;SDS011;37372;52.294;5.152;2022-08-21T09:37:25;10.23;;;4.07;;
51288;SDS011;37372;52.294;5.152;2022-08-21T09:39:57;8.27;;;3.25;;
51288;SDS011;37372;52.294;5.152;2022-08-21T09:42:28;6.50;;;3.40;;
51288;SDS011;37372;52.294;5.152;2022-08-21T09:45:05;7.53;;;2.60;;
51288;SDS011;37372;52.294;5.152;2022-08-21T09:47:42;8.63;;;2.53;;
51288;SDS011;37372;52.294;5.152;2022-08-21T09:50:14;8.15;;;2.88;;
51288;SDS011;37372;52.294;5.152;2022-08-21T09:52:43;9.05;;;3.40;;
51288;SDS011;37372;52.294;5.152;2022-08-21T09:55:15;10.48;;;3.50;;
51288;SDS011;37372;52.294;5.152;2022-08-21T09:58:03;9.30;;;2.97;;
51288;SDS011;37372;52.294;5.152;2022-08-21T10:00:30;10.52;;;2.90;;
51288;SDS011;37372;52.294;5.152;2022-08-21T10:03:17;9.90;;;2.97;;
51288;SDS011;37372;52.294;5.152;2022-08-21T10:08:21;8.55;;;3.60;;
51288;SDS011;37372;52.294;5.152;2022-08-21T10:11:08;10.07;;;3.47;;
51288;SDS011;37372;52.294;5.152;2022-08-21T10:16:37;9.25;;;4.00;;
51288;SDS011;37372;52.294;5.152;2022-08-21T10:19:09;8.95;;;3.13;;
51288;SDS011;37372;52.294;5.152;2022-08-21T10:24:25;6.88;;;3.58;;
51288;SDS011;37372;52.294;5.152;2022-08-21T10:27:08;9.35;;;4.20;;
51288;SDS011;37372;52.294;5.152;2022-08-21T10:41:02;8.32;;;3.33;;
51288;SDS011;37372;52.294;5.152;2022-08-21T10:52:18;10.82;;;2.75;;
51288;SDS011;37372;52.294;5.152;2022-08-21T11:00:14;7.93;;;2.10;;
51288;SDS011;37372;52.294;5.152;2022-08-21T11:06:14;6.03;;;1.60;;
51288;SDS011;37372;52.294;5.152;2022-08-21T11:08:28;7.05;;;1.95;;
51288;SDS011;37372;52.294;5.152;2022-08-21T11:13:43;12.48;;;2.35;;
51288;SDS011;37372;52.294;5.152;2022-08-21T11:16:23;8.00;;;1.75;;
51288;SDS011;37372;52.294;5.152;2022-08-21T11:27:16;8.13;;;2.20;;
51288;SDS011;37372;52.294;5.152;2022-08-21T11:30:05;9.88;;;2.28;;
51288;SDS011;37372;52.294;5.152;2022-08-21T11:38:35;4.53;;;1.55;;
51288;SDS011;37372;52.294;5.152;2022-08-21T11:43:41;7.35;;;1.55;;
51288;SDS011;37372;52.294;5.152;2022-08-21T11:49:17;8.50;;;2.15;;
51288;SDS011;37372;52.294;5.152;2022-08-21T11:52:01;7.18;;;1.50;;
51288;SDS011;37372;52.294;5.152;2022-08-21T11:54:37;4.55;;;1.02;;
51288;SDS011;37372;52.294;5.152;2022-08-21T11:57:14;4.35;;;1.10;;
51288;SDS011;37372;52.294;5.152;2022-08-21T11:59:43;5.95;;;1.48;;
51288;SDS011;37372;52.294;5.152;2022-08-21T12:02:15;5.70;;;1.15;;
51288;SDS011;37372;52.294;5.152;2022-08-21T12:04:48;6.18;;;1.92;;
51288;SDS011;37372;52.294;5.152;2022-08-21T12:07:31;5.85;;;1.20;;
51288;SDS011;37372;52.294;5.152;2022-08-21T12:09:57;6.28;;;1.40;;
51288;SDS011;37372;52.294;5.152;2022-08-21T12:12:25;5.78;;;1.35;;
51288;SDS011;37372;52.294;5.152;2022-08-21T12:15:11;6.28;;;1.42;;
51288;SDS011;37372;52.294;5.152;2022-08-21T12:25:36;4.57;;;1.10;;
51288;SDS011;37372;52.294;5.152;2022-08-21T12:28:23;5.13;;;1.50;;
51288;SDS011;37372;52.294;5.152;2022-08-21T12:30:50;7.45;;;1.30;;
51288;SDS011;37372;52.294;5.152;2022-08-21T12:33:23;10.38;;;2.63;;
51288;SDS011;37372;52.294;5.152;2022-08-21T12:36:00;5.28;;;1.48;;
51288;SDS011;37372;52.294;5.152;2022-08-21T12:38:45;7.65;;;1.40;;
51288;SDS011;37372;52.294;5.152;2022-08-21T12:41:19;6.10;;;1.20;;
51288;SDS011;37372;52.294;5.152;2022-08-21T12:43:50;4.72;;;1.27;;
51288;SDS011;37372;52.294;5.152;2022-08-21T12:49:40;6.15;;;1.35;;
51288;SDS011;37372;52.294;5.152;2022-08-21T12:52:20;6.00;;;1.48;;
51288;SDS011;37372;52.294;5.152;2022-08-21T12:54:49;6.10;;;2.00;;
51288;SDS011;37372;52.294;5.152;2022-08-21T12:57:21;5.53;;;1.23;;
51288;SDS011;37372;52.294;5.152;2022-08-21T12:59:57;8.07;;;1.42;;
51288;SDS011;37372;52.294;5.152;2022-08-21T13:02:26;4.22;;;1.50;;
51288;SDS011;37372;52.294;5.152;2022-08-21T13:04:56;6.05;;;1.08;;
51288;SDS011;37372;52.294;5.152;2022-08-21T13:07:30;4.18;;;1.05;;
51288;SDS011;37372;52.294;5.152;2022-08-21T13:09:59;6.20;;;1.70;;
51288;SDS011;37372;52.294;5.152;2022-08-21T13:12:29;4.75;;;1.33;;
51288;SDS011;37372;52.294;5.152;2022-08-21T13:14:56;7.07;;;2.10;;
51288;SDS011;37372;52.294;5.152;2022-08-21T13:17:25;8.85;;;2.00;;
51288;SDS011;37372;52.294;5.152;2022-08-21T13:19:58;7.65;;;1.88;;
51288;SDS011;37372;52.294;5.152;2022-08-21T13:22:26;4.45;;;1.52;;
51288;SDS011;37372;52.294;5.152;2022-08-21T13:24:53;4.82;;;1.38;;
51288;SDS011;37372;52.294;5.152;2022-08-21T13:27:21;5.80;;;1.63;;
51288;SDS011;37372;52.294;5.152;2022-08-21T13:29:48;7.30;;;2.22;;
51288;SDS011;37372;52.294;5.152;2022-08-21T13:32:26;2.95;;;1.02;;
51288;SDS011;37372;52.294;5.152;2022-08-21T13:34:54;6.70;;;1.35;;
51288;SDS011;37372;52.294;5.152;2022-08-21T13:37:19;4.78;;;1.33;;
51288;SDS011;37372;52.294;5.152;2022-08-21T13:39:49;3.90;;;1.33;;
51288;SDS011;37372;52.294;5.152;2022-08-21T13:42:16;3.00;;;1.02;;
51288;SDS011;37372;52.294;5.152;2022-08-21T13:44:44;4.75;;;1.20;;
51288;SDS011;37372;52.294;5.152;2022-08-21T13:47:12;4.15;;;1.20;;
51288;SDS011;37372;52.294;5.152;2022-08-21T13:49:40;5.60;;;1.30;;
51288;SDS011;37372;52.294;5.152;2022-08-21T13:52:16;5.75;;;1.23;;
51288;SDS011;37372;52.294;5.152;2022-08-21T13:54:53;4.85;;;1.75;;
51288;SDS011;37372;52.294;5.152;2022-08-21T13:57:25;5.97;;;1.98;;
51288;SDS011;37372;52.294;5.152;2022-08-21T14:00:09;5.70;;;1.70;;
51288;SDS011;37372;52.294;5.152;2022-08-21T14:02:40;9.60;;;1.73;;
51288;SDS011;37372;52.294;5.152;2022-08-21T14:05:14;4.93;;;1.00;;
51288;SDS011;37372;52.294;5.152;2022-08-21T14:07:41;6.07;;;0.90;;
51288;SDS011;37372;52.294;5.152;2022-08-21T14:10:13;4.38;;;1.30;;
51288;SDS011;37372;52.294;5.152;2022-08-21T14:12:46;6.85;;;1.40;;
51288;SDS011;37372;52.294;5.152;2022-08-21T14:15:16;6.22;;;1.60;;
51288;SDS011;37372;52.294;5.152;2022-08-21T14:17:44;4.78;;;1.58;;
51288;SDS011;37372;52.294;5.152;2022-08-21T14:20:11;5.82;;;1.63;;
51288;SDS011;37372;52.294;5.152;2022-08-21T14:22:49;6.70;;;1.50;;
51288;SDS011;37372;52.294;5.152;2022-08-21T14:27:51;3.55;;;1.23;;
51288;SDS011;37372;52.294;5.152;2022-08-21T14:30:22;3.25;;;1.50;;
51288;SDS011;37372;52.294;5.152;2022-08-21T14:32:53;5.90;;;1.65;;
51288;SDS011;37372;52.294;5.152;2022-08-21T14:35:19;4.00;;;1.27;;
51288;SDS011;37372;52.294;5.152;2022-08-21T14:37:46;5.25;;;1.75;;
51288;SDS011;37372;52.294;5.152;2022-08-21T14:40:15;6.10;;;2.13;;
51288;SDS011;37372;52.294;5.152;2022-08-21T14:42:42;7.70;;;1.48;;
51288;SDS011;37372;52.294;5.152;2022-08-21T14:45:19;4.85;;;1.65;;
51288;SDS011;37372;52.294;5.152;2022-08-21T14:47:49;8.70;;;1.77;;
51288;SDS011;37372;52.294;5.152;2022-08-21T14:50:14;6.13;;;1.80;;
51288;SDS011;37372;52.294;5.152;2022-08-21T14:52:40;4.20;;;1.30;;
51288;SDS011;37372;52.294;5.152;2022-08-21T14:55:07;6.80;;;1.65;;
51288;SDS011;37372;52.294;5.152;2022-08-21T14:57:35;4.10;;;1.55;;
51288;SDS011;37372;52.294;5.152;2022-08-21T15:00:01;5.00;;;1.80;;
51288;SDS011;37372;52.294;5.152;2022-08-21T15:02:29;6.80;;;1.95;;
51288;SDS011;37372;52.294;5.152;2022-08-21T15:04:55;7.38;;;2.45;;
51288;SDS011;37372;52.294;5.152;2022-08-21T15:07:20;6.85;;;1.50;;
51288;SDS011;37372;52.294;5.152;2022-08-21T15:09:45;6.05;;;1.60;;
51288;SDS011;37372;52.294;5.152;2022-08-21T15:12:11;7.28;;;1.75;;
51288;SDS011;37372;52.294;5.152;2022-08-21T15:14:38;6.50;;;1.67;;
51288;SDS011;37372;52.294;5.152;2022-08-21T15:17:08;6.05;;;1.63;;
51288;SDS011;37372;52.294;5.152;2022-08-21T15:19:35;8.65;;;1.70;;
51288;SDS011;37372;52.294;5.152;2022-08-21T15:22:01;6.20;;;1.70;;
51288;SDS011;37372;52.294;5.152;2022-08-21T15:24:27;8.85;;;2.42;;
51288;SDS011;37372;52.294;5.152;2022-08-21T15:26:52;7.90;;;1.65;;
51288;SDS011;37372;52.294;5.152;2022-08-21T15:29:19;6.10;;;1.45;;
51288;SDS011;37372;52.294;5.152;2022-08-21T15:32:45;8.00;;;2.80;;
51288;SDS011;37372;52.294;5.152;2022-08-21T15:34:42;7.05;;;1.88;;
51288;SDS011;37372;52.294;5.152;2022-08-21T15:37:07;7.63;;;1.63;;
51288;SDS011;37372;52.294;5.152;2022-08-21T15:39:33;7.22;;;2.30;;
51288;SDS011;37372;52.294;5.152;2022-08-21T15:42:00;9.05;;;2.03;;
51288;SDS011;37372;52.294;5.152;2022-08-21T15:44:26;9.45;;;1.95;;
51288;SDS011;37372;52.294;5.152;2022-08-21T15:46:54;6.20;;;1.50;;
51288;SDS011;37372;52.294;5.152;2022-08-21T15:49:20;10.02;;;2.25;;
51288;SDS011;37372;52.294;5.152;2022-08-21T15:51:46;5.78;;;1.60;;
51288;SDS011;37372;52.294;5.152;2022-08-21T15:54:12;7.03;;;1.45;;
51288;SDS011;37372;52.294;5.152;2022-08-21T15:56:39;6.75;;;1.52;;
51288;SDS011;37372;52.294;5.152;2022-08-21T15:59:08;4.30;;;1.13;;
51288;SDS011;37372;52.294;5.152;2022-08-21T16:01:41;5.85;;;1.42;;
51288;SDS011;37372;52.294;5.152;2022-08-21T16:04:07;4.85;;;1.27;;
51288;SDS011;37372;52.294;5.152;2022-08-21T16:06:33;6.05;;;1.60;;
51288;SDS011;37372;52.294;5.152;2022-08-21T16:08:59;5.85;;;1.60;;
51288;SDS011;37372;52.294;5.152;2022-08-21T16:11:24;6.72;;;2.10;;
51288;SDS011;37372;52.294;5.152;2022-08-21T16:13:50;3.35;;;1.55;;
51288;SDS011;37372;52.294;5.152;2022-08-21T16:16:16;5.50;;;1.30;;
51288;SDS011;37372;52.294;5.152;2022-08-21T16:18:45;9.98;;;1.83;;
51288;SDS011;37372;52.294;5.152;2022-08-21T16:21:12;8.30;;;1.75;;
51288;SDS011;37372;52.294;5.152;2022-08-21T16:23:37;5.10;;;1.33;;